Time;durP1;ratioP1;P1;durP2;ratioP2;P2;SDS_P1;SDS_P2;PMS_P1;PMS_P2;Temp;Humidity;BMP_temperature;BMP_pressure;BME280_temperature;BME280_humidity;BME280_pressure;Samples;Min_cycle;Max_cycle;Signal;HPM_P1;HPM_P2
2022/10/26 00:00:36;;;;;;;11.20;10.20;;;10.30;1.00;;;;;;6386584;27;20235;-54
2022/10/26 00:03:41;;;;;;;9.23;8.50;;;10.30;1.00;;;;;;6386331;27;20230;-60
2022/10/26 00:06:44;;;;;;;9.53;8.83;;;10.30;1.00;;;;;;6364543;27;20240;-53
2022/10/26 00:09:48;;;;;;;10.17;9.37;;;10.30;1.00;;;;;;6387840;27;20233;-55
2022/10/26 00:12:51;;;;;;;10.20;9.30;;;10.20;1.00;;;;;;6387822;27;20234;-54
2022/10/26 00:15:54;;;;;;;9.60;8.80;;;10.20;1.00;;;;;;6385885;27;20234;-53
2022/10/26 00:18:57;;;;;;;9.17;8.47;;;10.20;1.00;;;;;;6387147;27;20243;-53
2022/10/26 00:22:00;;;;;;;8.73;8.13;;;10.20;1.00;;;;;;6386531;27;20234;-56
2022/10/26 00:25:05;;;;;;;9.10;8.43;;;10.20;1.00;;;;;;6366602;27;20763;-53
2022/10/26 00:28:08;;;;;;;9.97;9.17;;;10.20;1.00;;;;;;6378143;27;20739;-54
2022/10/26 00:31:13;;;;;;;8.77;8.17;;;10.20;1.00;;;;;;6383882;27;20312;-54
2022/10/26 00:34:16;;;;;;;8.77;7.97;;;10.20;1.00;;;;;;6382803;27;20238;-53
2022/10/26 00:37:19;;;;;;;9.27;8.47;;;10.10;1.00;;;;;;6385713;27;20234;-54
2022/10/26 00:40:28;;;;;;;9.63;8.93;;;10.10;1.00;;;;;;6384458;27;20230;-54
2022/10/26 00:43:39;;;;;;;8.87;8.17;;;10.10;1.00;;;;;;6386874;27;20239;-54
2022/10/26 00:46:42;;;;;;;10.37;9.40;;;10.10;1.00;;;;;;6385873;27;20227;-55
2022/10/26 00:49:47;;;;;;;8.80;8.20;;;10.10;1.00;;;;;;6370926;27;20239;-54
2022/10/26 00:52:51;;;;;;;9.93;9.10;;;10.00;1.00;;;;;;6365899;27;20247;-54
2022/10/26 00:55:56;;;;;;;8.53;8.03;;;10.00;1.00;;;;;;6366616;27;20239;-56
2022/10/26 00:59:05;;;;;;;9.57;8.93;;;10.00;1.00;;;;;;6385935;27;20245;-54
2022/10/26 01:02:08;;;;;;;9.73;8.83;;;10.00;1.00;;;;;;6388387;27;20227;-54
2022/10/26 01:05:12;;;;;;;9.17;8.57;;;10.00;1.00;;;;;;6366019;27;20235;-55
2022/10/26 01:08:16;;;;;;;10.10;9.30;;;10.00;1.00;;;;;;6381003;27;20238;-57
2022/10/26 01:11:20;;;;;;;9.27;8.60;;;10.00;1.00;;;;;;6390247;27;20403;-54
2022/10/26 01:14:25;;;;;;;8.63;7.93;;;9.90;1.00;;;;;;6365284;27;20250;-54
2022/10/26 01:17:41;;;;;;;9.40;8.70;;;9.90;1.00;;;;;;6364953;27;20457;-53
2022/10/26 01:21:13;;;;;;;9.47;8.37;;;9.90;1.00;;;;;;6364540;27;20251;-53
2022/10/26 01:24:42;;;;;;;10.13;9.33;;;9.90;1.00;;;;;;6365900;27;20227;-56
2022/10/26 01:27:49;;;;;;;9.77;9.07;;;9.90;1.00;;;;;;6379749;27;20301;-53
2022/10/26 01:30:57;;;;;;;9.50;8.87;;;9.90;1.00;;;;;;6381959;27;20277;-53
2022/10/26 01:34:04;;;;;;;9.67;8.83;;;9.90;1.00;;;;;;6380454;27;20235;-56
2022/10/26 01:37:12;;;;;;;8.90;8.23;;;9.90;1.00;;;;;;6387941;27;20234;-54
2022/10/26 01:40:21;;;;;;;9.07;8.47;;;9.90;1.00;;;;;;6391047;27;20234;-53
2022/10/26 01:43:26;;;;;;;9.50;8.80;;;9.80;1.00;;;;;;6389778;27;20242;-54
2022/10/26 01:46:34;;;;;;;9.73;9.03;;;9.80;1.00;;;;;;6377475;27;20243;-54
2022/10/26 01:49:41;;;;;;;9.97;9.07;;;9.80;1.00;;;;;;6364409;27;20227;-58
2022/10/26 01:52:44;;;;;;;10.07;9.27;;;9.80;1.00;;;;;;6364838;27;20227;-53
2022/10/26 01:55:50;;;;;;;10.33;9.47;;;9.80;1.00;;;;;;6378209;27;20238;-53
2022/10/26 01:59:11;;;;;;;9.43;8.83;;;9.80;1.00;;;;;;6386656;27;20242;-53
2022/10/26 02:02:47;;;;;;;10.30;9.50;;;9.80;1.00;;;;;;6361795;27;20227;-53
2022/10/26 02:06:03;;;;;;;9.43;8.63;;;9.70;1.00;;;;;;6364325;27;20239;-56
2022/10/26 02:09:16;;;;;;;9.67;8.97;;;9.70;1.00;;;;;;6386171;27;20246;-53
2022/10/26 02:12:27;;;;;;;9.73;8.87;;;9.70;1.00;;;;;;6378928;27;20231;-53
2022/10/26 02:15:36;;;;;;;9.37;8.77;;;9.70;1.00;;;;;;6364145;27;20232;-54
2022/10/26 02:18:44;;;;;;;8.90;8.30;;;9.70;1.00;;;;;;6363961;27;20312;-53
2022/10/26 02:21:54;;;;;;;9.40;8.70;;;9.70;1.00;;;;;;6363749;27;20712;-51
2022/10/26 02:24:59;;;;;;;9.27;8.53;;;9.70;1.00;;;;;;6363884;27;20235;-54
2022/10/26 02:28:06;;;;;;;10.23;9.27;;;9.60;1.00;;;;;;6376068;27;20651;-53
2022/10/26 02:31:11;;;;;;;9.47;8.87;;;9.60;1.00;;;;;;6385099;27;20235;-54
2022/10/26 02:34:21;;;;;;;9.37;8.67;;;9.60;1.00;;;;;;6386602;27;20238;-53
2022/10/26 02:37:27;;;;;;;10.07;9.17;;;9.60;1.00;;;;;;6382011;27;20298;-54
2022/10/26 02:40:32;;;;;;;10.27;9.37;;;9.60;1.00;;;;;;6376612;27;20231;-51
2022/10/26 02:43:45;;;;;;;9.83;9.13;;;9.50;1.00;;;;;;6388623;27;20235;-56
2022/10/26 02:46:48;;;;;;;10.30;9.33;;;9.50;1.00;;;;;;6388417;27;20231;-61
2022/10/26 02:49:53;;;;;;;10.53;9.63;;;9.50;1.00;;;;;;6372990;27;20231;-57
2022/10/26 02:53:07;;;;;;;10.03;9.23;;;9.50;1.00;;;;;;6361713;27;20250;-54
2022/10/26 02:56:17;;;;;;;10.10;9.40;;;9.60;1.00;;;;;;6364018;27;20231;-54
2022/10/26 02:59:22;;;;;;;9.50;8.80;;;9.50;1.00;;;;;;6387495;27;20242;-54
2022/10/26 03:02:25;;;;;;;9.80;8.93;;;9.50;1.00;;;;;;6373311;27;20656;-54
2022/10/26 03:05:32;;;;;;;9.83;8.93;;;9.50;1.00;;;;;;6362645;27;20659;-55
2022/10/26 03:08:35;;;;;;;10.73;9.97;;;9.50;1.00;;;;;;6380476;27;20218;-54
2022/10/26 03:11:37;;;;;;;10.13;9.33;;;9.50;1.00;;;;;;6382944;27;20473;-54
2022/10/26 03:14:41;;;;;;;10.80;9.90;;;9.40;1.00;;;;;;6388540;27;20473;-54
2022/10/26 03:17:44;;;;;;;10.63;9.73;;;9.40;1.00;;;;;;6387698;27;20227;-54
2022/10/26 03:20:48;;;;;;;11.73;10.40;;;9.40;1.00;;;;;;6370474;27;20239;-54
2022/10/26 03:23:51;;;;;;;12.20;10.93;;;9.40;1.00;;;;;;6362721;27;20299;-54
2022/10/26 03:26:54;;;;;;;9.90;9.17;;;9.40;1.00;;;;;;6362994;27;20814;-53
2022/10/26 03:30:02;;;;;;;10.43;9.63;;;9.40;1.00;;;;;;6363206;27;20684;-53
2022/10/26 03:33:05;;;;;;;9.37;8.67;;;9.40;1.00;;;;;;6362135;27;20231;-54
2022/10/26 03:36:10;;;;;;;9.87;9.10;;;9.40;1.00;;;;;;6382775;27;20226;-53
2022/10/26 03:39:13;;;;;;;11.03;9.97;;;9.40;1.00;;;;;;6385990;27;20226;-56
2022/10/26 03:42:16;;;;;;;10.40;8.80;;;9.40;1.00;;;;;;6384799;27;20242;-55
2022/10/26 03:45:19;;;;;;;9.53;8.73;;;9.40;1.00;;;;;;6386743;27;20715;-54
2022/10/26 03:48:21;;;;;;;9.90;9.10;;;9.40;1.00;;;;;;6386496;27;20233;-54
2022/10/26 03:51:26;;;;;;;8.77;8.00;;;9.40;1.00;;;;;;6378961;27;20218;-53
2022/10/26 03:54:29;;;;;;;8.70;8.10;;;9.30;1.00;;;;;;6385159;27;20237;-56
2022/10/26 03:57:32;;;;;;;8.23;7.63;;;9.40;1.00;;;;;;6380604;27;20222;-55
2022/10/26 04:00:44;;;;;;;8.07;7.57;;;9.30;1.00;;;;;;6385445;27;20234;-54
2022/10/26 04:03:46;;;;;;;9.10;8.40;;;9.40;1.00;;;;;;6382524;27;20249;-55
2022/10/26 04:06:51;;;;;;;11.47;9.80;;;9.30;1.00;;;;;;6375506;27;20389;-56
2022/10/26 04:09:54;;;;;;;10.03;9.10;;;9.40;1.00;;;;;;6386216;27;20753;-57
2022/10/26 04:12:59;;;;;;;9.30;8.33;;;9.40;1.00;;;;;;6377797;27;20715;-53
2022/10/26 04:16:01;;;;;;;8.33;7.73;;;9.40;1.00;;;;;;6376919;27;20639;-54
2022/10/26 04:19:04;;;;;;;8.63;7.87;;;9.40;1.00;;;;;;6386374;27;20622;-54
2022/10/26 04:22:08;;;;;;;8.73;8.13;;;9.30;1.00;;;;;;6385862;27;20384;-53
2022/10/26 04:25:12;;;;;;;10.93;9.80;;;9.30;1.00;;;;;;6385890;27;20253;-54
2022/10/26 04:28:15;;;;;;;9.90;9.07;;;9.30;1.00;;;;;;6386363;27;20226;-53
2022/10/26 04:31:17;;;;;;;9.60;9.00;;;9.30;1.00;;;;;;6386399;27;20233;-53
2022/10/26 04:34:20;;;;;;;11.07;10.17;;;9.30;1.00;;;;;;6377170;27;20325;-61
2022/10/26 04:37:24;;;;;;;11.90;10.80;;;9.30;1.00;;;;;;6385412;27;20383;-53
2022/10/26 04:40:33;;;;;;;11.77;10.57;;;9.40;1.00;;;;;;6365779;27;20634;-56
2022/10/26 04:43:35;;;;;;;10.90;9.97;;;9.40;1.00;;;;;;6382371;27;20231;-55
2022/10/26 04:46:38;;;;;;;11.60;10.10;;;9.40;1.00;;;;;;6385294;27;20231;-54
2022/10/26 04:49:43;;;;;;;9.77;8.87;;;9.40;1.00;;;;;;6381896;27;20711;-53
2022/10/26 04:52:50;;;;;;;11.00;9.90;;;9.40;1.00;;;;;;6383772;27;20265;-55
2022/10/26 04:55:56;;;;;;;16.00;10.83;;;9.30;1.00;;;;;;6384575;27;20246;-54
2022/10/26 04:58:59;;;;;;;10.60;9.77;;;9.30;1.00;;;;;;6381217;27;20231;-53
2022/10/26 05:02:02;;;;;;;10.63;9.63;;;9.30;1.00;;;;;;6376682;27;20614;-55
2022/10/26 05:05:05;;;;;;;11.87;10.77;;;9.30;1.00;;;;;;6384584;27;20309;-53
2022/10/26 05:08:14;;;;;;;11.10;10.00;;;9.30;1.00;;;;;;6373172;27;20268;-53
2022/10/26 05:11:17;;;;;;;13.03;10.30;;;9.30;1.00;;;;;;6357388;27;20605;-53
2022/10/26 05:14:20;;;;;;;11.80;10.70;;;9.30;1.00;;;;;;6357231;27;20237;-56
2022/10/26 05:17:23;;;;;;;12.37;11.17;;;9.30;1.00;;;;;;6383547;27;20602;-55
2022/10/26 05:20:28;;;;;;;11.60;10.57;;;9.30;1.00;;;;;;6384431;27;20234;-54
2022/10/26 05:23:32;;;;;;;11.20;10.07;;;9.30;1.00;;;;;;6381087;27;20295;-54
2022/10/26 05:26:35;;;;;;;11.50;10.40;;;9.30;1.00;;;;;;6384942;27;20330;-54
2022/10/26 05:29:53;;;;;;;11.93;10.47;;;9.30;1.00;;;;;;6384669;27;20234;-53
2022/10/26 05:32:56;;;;;;;9.57;8.80;;;9.30;1.00;;;;;;6379410;27;21090;-55
2022/10/26 05:35:59;;;;;;;12.50;10.10;;;9.20;1.00;;;;;;6385427;27;20242;-54
2022/10/26 05:39:03;;;;;;;10.27;9.47;;;9.20;1.00;;;;;;6384868;27;20238;-54
2022/10/26 05:42:06;;;;;;;10.27;9.43;;;9.20;1.00;;;;;;6385850;27;20231;-54
2022/10/26 05:45:11;;;;;;;12.17;10.87;;;9.20;1.00;;;;;;6384183;27;20231;-55
2022/10/26 05:48:14;;;;;;;10.80;9.83;;;9.20;1.00;;;;;;6388452;27;20702;-54
2022/10/26 05:51:16;;;;;;;12.00;10.77;;;9.20;1.00;;;;;;6387048;27;20234;-53
2022/10/26 05:54:21;;;;;;;11.97;10.83;;;9.20;1.00;;;;;;6389038;27;20601;-53
2022/10/26 05:57:24;;;;;;;10.90;9.93;;;9.20;1.00;;;;;;6385536;27;20230;-52
2022/10/26 06:00:29;;;;;;;11.70;10.60;;;9.20;1.00;;;;;;6386021;27;20223;-53
2022/10/26 06:03:39;;;;;;;13.80;11.37;;;9.10;1.00;;;;;;6388910;27;20230;-54
2022/10/26 06:06:45;;;;;;;11.57;10.67;;;9.10;1.00;;;;;;6385250;27;20231;-55
2022/10/26 06:09:50;;;;;;;10.60;9.80;;;9.10;1.00;;;;;;6386826;27;20620;-58
2022/10/26 06:12:53;;;;;;;10.43;9.53;;;9.10;1.00;;;;;;6388412;27;20235;-54
2022/10/26 06:16:13;;;;;;;11.20;10.07;;;9.10;1.00;;;;;;6388304;27;20238;-53
2022/10/26 06:19:27;;;;;;;10.57;9.53;;;9.00;1.00;;;;;;6380413;27;20473;-57
2022/10/26 06:22:42;;;;;;;10.87;9.87;;;9.00;1.00;;;;;;6387674;27;20235;-54
2022/10/26 06:25:59;;;;;;;11.80;10.73;;;9.00;1.00;;;;;;6381725;27;20242;-55
2022/10/26 06:29:17;;;;;;;9.50;8.70;;;9.00;1.00;;;;;;6379577;27;20242;-55
2022/10/26 06:32:23;;;;;;;12.40;10.67;;;9.10;1.00;;;;;;6378463;27;20235;-56
2022/10/26 06:35:33;;;;;;;10.77;9.60;;;9.10;1.00;;;;;;6386604;27;20249;-54
2022/10/26 06:38:39;;;;;;;12.03;10.87;;;9.10;1.00;;;;;;6387717;27;20223;-55
2022/10/26 06:41:44;;;;;;;12.17;10.77;;;9.10;1.00;;;;;;6387601;27;20629;-54
2022/10/26 06:44:48;;;;;;;11.97;10.50;;;9.10;1.00;;;;;;6380056;27;20231;-54
2022/10/26 06:47:59;;;;;;;11.77;10.63;;;9.10;1.00;;;;;;6386934;27;20245;-54
2022/10/26 06:51:02;;;;;;;11.50;10.00;;;9.10;1.00;;;;;;6383964;27;20230;-55
2022/10/26 06:54:13;;;;;;;10.17;9.37;;;9.20;1.00;;;;;;6386697;27;20234;-54
2022/10/26 06:57:19;;;;;;;10.83;9.63;;;9.30;1.00;;;;;;6387988;27;20235;-53
2022/10/26 07:00:23;;;;;;;11.37;10.33;;;9.30;1.00;;;;;;6386820;27;20605;-54
2022/10/26 07:03:27;;;;;;;15.83;11.43;;;9.40;1.00;;;;;;6388653;27;20266;-54
2022/10/26 07:06:30;;;;;;;12.63;11.33;;;9.40;1.00;;;;;;6386463;27;20253;-55
2022/10/26 07:09:36;;;;;;;15.93;11.40;;;9.40;1.00;;;;;;6387621;27;20304;-54
2022/10/26 07:12:40;;;;;;;13.13;11.80;;;9.50;1.00;;;;;;6388155;27;20238;-54
2022/10/26 07:15:43;;;;;;;13.63;12.33;;;9.50;1.00;;;;;;6384156;27;20762;-55
2022/10/26 07:18:46;;;;;;;16.83;12.10;;;9.60;1.00;;;;;;6387738;27;20231;-58
2022/10/26 07:21:49;;;;;;;14.73;12.13;;;9.60;1.00;;;;;;6358248;27;20238;-55
2022/10/26 07:24:52;;;;;;;14.70;13.23;;;9.60;1.00;;;;;;6351548;27;20234;-54
2022/10/26 07:27:58;;;;;;;15.23;12.33;;;9.70;1.00;;;;;;6380446;27;20250;-54
2022/10/26 07:31:01;;;;;;;14.90;12.30;;;9.70;1.00;;;;;;6387333;27;20241;-54
2022/10/26 07:34:04;;;;;;;13.23;11.93;;;9.80;1.00;;;;;;6386223;27;20714;-53
2022/10/26 07:37:07;;;;;;;15.07;13.57;;;9.90;1.00;;;;;;6386014;27;20230;-55
2022/10/26 07:40:10;;;;;;;13.73;11.77;;;10.00;1.00;;;;;;6375206;27;20241;-56
2022/10/26 07:43:15;;;;;;;12.87;11.60;;;10.00;1.00;;;;;;6386249;27;20284;-55
2022/10/26 07:46:18;;;;;;;13.03;11.87;;;10.10;1.00;;;;;;6383056;27;21075;-56
2022/10/26 07:49:20;;;;;;;19.27;16.00;;;10.20;1.00;;;;;;6386551;27;20241;-55
2022/10/26 07:52:29;;;;;;;13.80;12.50;;;10.30;1.00;;;;;;6379813;27;20250;-54
2022/10/26 07:55:32;;;;;;;15.00;13.40;;;10.30;1.00;;;;;;6384208;27;20233;-55
2022/10/26 07:58:36;;;;;;;13.67;12.30;;;10.30;1.00;;;;;;6385073;27;20242;-54
2022/10/26 08:01:39;;;;;;;13.93;11.50;;;10.40;1.00;;;;;;6384347;27;20255;-54
2022/10/26 08:04:42;;;;;;;14.77;12.17;;;10.40;1.00;;;;;;6383350;27;20265;-54
2022/10/26 08:07:45;;;;;;;13.07;11.13;;;10.70;1.00;;;;;;6384668;27;20587;-53
2022/10/26 08:10:48;;;;;;;13.57;12.13;;;10.70;1.00;;;;;;6385357;27;20238;-54
2022/10/26 08:13:53;;;;;;;13.80;12.40;;;10.80;1.00;;;;;;6384116;27;20604;-54
2022/10/26 08:16:56;;;;;;;14.87;13.13;;;10.90;1.00;;;;;;6376569;27;20720;-55
2022/10/26 08:19:59;;;;;;;13.50;11.97;;;11.00;1.00;;;;;;6387254;27;20226;-54
2022/10/26 08:23:05;;;;;;;14.03;12.13;;;11.10;1.00;;;;;;6377987;27;20648;-55
2022/10/26 08:26:10;;;;;;;15.37;13.07;;;11.20;1.00;;;;;;6383062;27;20231;-53
2022/10/26 08:29:14;;;;;;;13.70;12.27;;;11.30;1.00;;;;;;6385628;27;20227;-55
2022/10/26 08:32:17;;;;;;;13.03;11.77;;;11.40;1.00;;;;;;6384281;27;20235;-54
2022/10/26 08:35:20;;;;;;;14.07;12.73;;;11.50;1.00;;;;;;6384790;27;20261;-53
2022/10/26 08:38:24;;;;;;;12.97;11.53;;;11.60;1.00;;;;;;6385205;27;20707;-54
2022/10/26 08:41:34;;;;;;;12.73;11.40;;;11.70;1.00;;;;;;6369947;27;20372;-55
2022/10/26 08:44:45;;;;;;;13.00;11.37;;;11.80;1.00;;;;;;6385513;27;20229;-56
2022/10/26 08:47:53;;;;;;;12.80;11.47;;;12.00;1.00;;;;;;6382325;27;20234;-55
2022/10/26 08:50:59;;;;;;;16.60;11.77;;;12.10;1.00;;;;;;6384520;27;20718;-55
2022/10/26 08:54:12;;;;;;;13.50;12.07;;;12.20;1.00;;;;;;6385156;27;20251;-54
2022/10/26 08:57:21;;;;;;;16.80;12.27;;;12.30;1.00;;;;;;6376765;27;20231;-56
2022/10/26 09:00:30;;;;;;;14.10;11.87;;;12.40;1.00;;;;;;6384551;27;20227;-55
2022/10/26 09:03:33;;;;;;;12.80;11.53;;;12.50;1.00;;;;;;6375822;27;20235;-53
2022/10/26 09:06:44;;;;;;;13.07;11.60;;;12.60;1.00;;;;;;6381654;27;20525;-53
2022/10/26 09:09:57;;;;;;;16.03;10.83;;;12.80;1.00;;;;;;6383298;27;20604;-54
2022/10/26 09:13:06;;;;;;;15.03;10.83;;;12.90;1.00;;;;;;6378798;27;20243;-55
2022/10/26 09:16:26;;;;;;;12.63;11.53;;;13.00;1.00;;;;;;6386637;27;20230;-56
2022/10/26 09:19:59;;;;;;;13.57;12.07;;;13.10;1.00;;;;;;6389224;27;20234;-56
2022/10/26 09:23:10;;;;;;;13.63;11.67;;;13.30;1.00;;;;;;6387546;27;20241;-55
2022/10/26 09:26:25;;;;;;;18.23;12.00;;;13.50;1.00;;;;;;6387707;27;20230;-54
2022/10/26 09:29:41;;;;;;;13.77;11.53;;;13.50;1.00;;;;;;6400204;27;20219;-55
2022/10/26 09:32:48;;;;;;;12.80;11.50;;;13.70;1.00;;;;;;6392403;27;20239;-58
2022/10/26 09:35:55;;;;;;;13.67;12.30;;;13.80;1.00;;;;;;6391397;27;20234;-55
2022/10/26 09:39:03;;;;;;;12.47;11.33;;;13.90;1.00;;;;;;6389632;27;20230;-55
2022/10/26 09:42:17;;;;;;;14.43;10.93;;;14.10;1.00;;;;;;6384139;27;20639;-53
2022/10/26 09:45:25;;;;;;;13.37;10.90;;;14.20;1.00;;;;;;6388401;27;20604;-54
2022/10/26 09:48:35;;;;;;;12.03;10.87;;;14.30;1.00;;;;;;6385834;27;20227;-57
2022/10/26 09:51:48;;;;;;;12.37;10.50;;;14.50;1.00;;;;;;6389603;27;20243;-55
2022/10/26 09:54:51;;;;;;;11.50;10.17;;;14.60;1.00;;;;;;6390415;27;20237;-54
2022/10/26 09:57:57;;;;;;;10.80;9.73;;;14.80;1.00;;;;;;6386790;27;20723;-54
2022/10/26 10:01:01;;;;;;;11.53;8.90;;;15.00;1.00;;;;;;6389053;27;20737;-54
2022/10/26 10:04:22;;;;;;;8.63;7.77;;;15.10;1.00;;;;;;6384857;27;22475;-56
2022/10/26 10:07:25;;;;;;;12.93;9.40;;;15.30;1.00;;;;;;6383253;27;20254;-55
2022/10/26 10:10:28;;;;;;;10.37;8.43;;;15.40;1.00;;;;;;6388659;27;20227;-54
2022/10/26 10:13:33;;;;;;;10.03;8.03;;;15.60;1.00;;;;;;6389123;27;20237;-55
2022/10/26 10:17:14;;;;;;;10.40;8.17;;;15.70;1.00;;;;;;6370810;27;20231;-57
2022/10/26 10:20:23;;;;;;;9.87;7.60;;;15.70;1.00;;;;;;6387390;27;20227;-55
2022/10/26 10:23:29;;;;;;;7.40;6.90;;;15.90;1.00;;;;;;6388132;27;20229;-62
2022/10/26 10:26:32;;;;;;;8.07;7.33;;;15.90;1.00;;;;;;6388407;27;20481;-54
2022/10/26 10:29:41;;;;;;;8.17;6.87;;;16.10;1.00;;;;;;6385159;27;20729;-55
2022/10/26 10:32:44;;;;;;;8.00;7.27;;;16.20;1.00;;;;;;6382457;27;20231;-55
2022/10/26 10:35:53;;;;;;;7.00;6.50;;;16.30;1.00;;;;;;6387486;27;20230;-55
2022/10/26 10:38:56;;;;;;;7.87;6.83;;;16.40;1.00;;;;;;6377240;27;20227;-62
2022/10/26 10:42:00;;;;;;;6.70;5.83;;;16.40;1.00;;;;;;6387937;27;20492;-55
2022/10/26 10:45:05;;;;;;;6.03;5.53;;;16.60;1.00;;;;;;6389954;27;20234;-54
2022/10/26 10:48:16;;;;;;;7.53;4.83;;;16.70;1.00;;;;;;6387343;27;20227;-55
2022/10/26 10:51:23;;;;;;;5.53;5.10;;;16.90;1.00;;;;;;6388591;27;20326;-53
2022/10/26 10:54:31;;;;;;;4.97;4.57;;;17.00;1.00;;;;;;6351110;27;20309;-54
2022/10/26 10:57:45;;;;;;;5.93;4.10;;;17.10;1.00;;;;;;6381713;27;20401;-56
2022/10/26 11:01:35;;;;;;;4.23;3.80;;;17.20;1.00;;;;;;6387149;27;20258;-55
2022/10/26 11:05:05;;;;;;;5.03;4.23;;;17.20;1.00;;;;;;6350781;27;20286;-55
2022/10/26 11:08:16;;;;;;;4.03;3.83;;;17.20;1.00;;;;;;6384820;27;20236;-54
2022/10/26 11:11:23;;;;;;;5.33;4.00;;;17.20;1.00;;;;;;6388450;27;20723;-55
2022/10/26 11:14:30;;;;;;;5.07;4.20;;;17.30;1.00;;;;;;6390233;27;20250;-55
2022/10/26 11:17:47;;;;;;;6.67;4.53;;;17.40;1.00;;;;;;6365281;27;20475;-55
2022/10/26 11:21:13;;;;;;;4.57;4.00;;;17.40;1.00;;;;;;6379942;27;20231;-54
2022/10/26 11:24:26;;;;;;;8.60;4.70;;;17.60;1.00;;;;;;6349969;27;20235;-55
2022/10/26 11:27:34;;;;;;;5.63;4.63;;;17.60;1.00;;;;;;6385641;27;20487;-55
2022/10/26 11:30:45;;;;;;;12.37;10.97;;;17.70;1.00;;;;;;6380927;27;20231;-54
2022/10/26 11:34:08;;;;;;;4.53;4.17;;;17.70;1.00;;;;;;6384638;27;20422;-55
2022/10/26 11:37:16;;;;;;;4.33;4.07;;;17.70;1.00;;;;;;6353040;27;20231;-54
2022/10/26 11:40:38;;;;;;;4.77;4.37;;;17.90;1.00;;;;;;6379088;27;20243;-55
2022/10/26 11:43:44;;;;;;;4.20;3.80;;;18.10;1.00;;;;;;6383142;27;20238;-54
2022/10/26 11:46:52;;;;;;;4.70;4.30;;;18.10;1.00;;;;;;6386494;27;20231;-55
2022/10/26 11:50:04;;;;;;;5.40;4.23;;;18.20;1.00;;;;;;6384763;27;20235;-54
2022/10/26 11:53:14;;;;;;;4.10;3.80;;;18.20;1.00;;;;;;6352367;27;20227;-52
2022/10/26 11:56:31;;;;;;;3.57;3.47;;;18.30;1.00;;;;;;6383845;27;20219;-58
2022/10/26 11:59:39;;;;;;;4.27;3.67;;;18.40;1.00;;;;;;6384234;27;20557;-54
2022/10/26 12:02:43;;;;;;;4.97;3.57;;;18.50;1.00;;;;;;6382093;27;20715;-54
2022/10/26 12:05:50;;;;;;;6.17;5.27;;;18.60;1.00;;;;;;6382639;27;20511;-54
2022/10/26 12:08:59;;;;;;;4.70;3.90;;;18.60;1.00;;;;;;6381942;27;20615;-56
2022/10/26 12:12:09;;;;;;;4.57;3.20;;;18.60;1.00;;;;;;6385493;27;20239;-55
2022/10/26 12:15:24;;;;;;;4.17;3.30;;;18.80;1.00;;;;;;6381416;27;20238;-55
2022/10/26 12:18:51;;;;;;;4.03;3.70;;;18.80;1.00;;;;;;6381172;27;20253;-58
2022/10/26 12:21:59;;;;;;;3.30;3.10;;;18.80;1.00;;;;;;6378705;27;21068;-55
2022/10/26 12:25:17;;;;;;;3.87;3.50;;;18.80;1.00;;;;;;6385738;27;20623;-54
2022/10/26 12:28:40;;;;;;;3.67;3.47;;;18.80;1.00;;;;;;6376648;27;20227;-54
2022/10/26 12:31:44;;;;;;;3.23;3.03;;;18.90;1.00;;;;;;6380889;27;20230;-56
2022/10/26 12:35:23;;;;;;;3.27;3.10;;;18.80;1.00;;;;;;6385491;27;20223;-54
2022/10/26 12:39:03;;;;;;;3.33;3.03;;;18.80;1.00;;;;;;6377092;27;20230;-55
2022/10/26 12:42:29;;;;;;;3.43;3.10;;;18.80;1.00;;;;;;6385708;27;20375;-56
2022/10/26 12:45:35;;;;;;;4.47;3.30;;;18.70;1.00;;;;;;6369480;27;20237;-55
2022/10/26 12:48:43;;;;;;;3.00;2.87;;;18.60;1.00;;;;;;6387721;27;20237;-55
2022/10/26 12:51:46;;;;;;;3.47;3.20;;;18.70;1.00;;;;;;6379414;27;20249;-54
2022/10/26 12:55:15;;;;;;;5.40;3.07;;;18.60;1.00;;;;;;6389380;27;20234;-54
2022/10/26 12:58:41;;;;;;;3.67;3.57;;;18.60;1.00;;;;;;6336868;27;20237;-54
2022/10/26 13:02:08;;;;;;;3.73;3.43;;;18.70;1.00;;;;;;6388905;27;20266;-53
2022/10/26 13:05:31;;;;;;;3.57;3.37;;;18.70;1.00;;;;;;6388248;27;20321;-58
2022/10/26 13:08:41;;;;;;;3.70;3.40;;;18.70;1.00;;;;;;6389094;27;20249;-55
2022/10/26 13:11:48;;;;;;;3.40;3.10;;;18.60;1.00;;;;;;6390106;27;20238;-55
2022/10/26 13:15:00;;;;;;;3.37;3.27;;;18.70;1.00;;;;;;6389691;27;20231;-55
2022/10/26 13:18:10;;;;;;;3.70;3.37;;;18.60;1.00;;;;;;6389071;27;20234;-59
2022/10/26 13:21:24;;;;;;;3.90;3.60;;;18.70;1.00;;;;;;6384225;27;20237;-54
2022/10/26 13:24:29;;;;;;;3.77;3.57;;;18.60;1.00;;;;;;6389117;27;20250;-54
2022/10/26 13:27:45;;;;;;;3.50;3.20;;;18.60;1.00;;;;;;6389754;27;20737;-54
2022/10/26 13:30:49;;;;;;;3.10;2.90;;;18.60;1.00;;;;;;6387822;27;20637;-54
2022/10/26 13:34:09;;;;;;;3.63;3.30;;;18.60;1.00;;;;;;6386157;27;20735;-54
2022/10/26 13:37:20;;;;;;;3.00;2.90;;;18.60;1.00;;;;;;6380257;27;20265;-55
2022/10/26 13:40:25;;;;;;;5.00;4.30;;;18.60;1.00;;;;;;6382074;27;20219;-54
2022/10/26 13:43:38;;;;;;;4.87;4.27;;;18.60;1.00;;;;;;6384425;27;20970;-54
2022/10/26 13:46:41;;;;;;;3.80;3.50;;;18.60;1.00;;;;;;6388073;27;20332;-54
2022/10/26 13:49:48;;;;;;;3.80;3.60;;;18.50;1.00;;;;;;6388057;27;20695;-54
2022/10/26 13:52:55;;;;;;;4.70;4.30;;;18.50;1.00;;;;;;6382388;27;20539;-54
2022/10/26 13:56:03;;;;;;;4.70;3.80;;;18.50;1.00;;;;;;6387470;27;20239;-54
2022/10/26 13:59:10;;;;;;;4.93;3.50;;;18.50;1.00;;;;;;6384731;27;20235;-55
2022/10/26 14:02:19;;;;;;;4.30;4.00;;;18.50;1.00;;;;;;6388707;27;20277;-54
2022/10/26 14:05:24;;;;;;;3.87;3.63;;;18.40;1.00;;;;;;6383064;27;20234;-55
2022/10/26 14:08:27;;;;;;;7.23;4.20;;;18.40;1.00;;;;;;6388056;27;20741;-57
2022/10/26 14:11:35;;;;;;;5.37;3.43;;;18.30;1.00;;;;;;6386280;27;20231;-54
2022/10/26 14:14:40;;;;;;;4.13;3.80;;;18.30;1.00;;;;;;6390374;27;20243;-55
2022/10/26 14:17:43;;;;;;;3.63;3.40;;;18.20;1.00;;;;;;6390750;27;20246;-54
2022/10/26 14:20:56;;;;;;;4.93;4.53;;;18.20;1.00;;;;;;6384760;27;20762;-56
2022/10/26 14:24:21;;;;;;;3.30;3.17;;;18.10;1.00;;;;;;6389467;27;20245;-54
2022/10/26 14:27:44;;;;;;;2.57;2.53;;;18.00;1.00;;;;;;6385643;27;20607;-54
2022/10/26 14:30:47;;;;;;;3.00;2.80;;;18.00;1.00;;;;;;6387619;27;20235;-55
2022/10/26 14:33:50;;;;;;;4.87;2.60;;;18.00;1.00;;;;;;6387431;27;20243;-55
2022/10/26 14:36:58;;;;;;;2.60;2.50;;;17.90;1.00;;;;;;6388822;27;20232;-54
2022/10/26 14:40:02;;;;;;;4.13;2.87;;;17.80;1.00;;;;;;6385622;27;20235;-54
2022/10/26 14:43:16;;;;;;;3.00;2.90;;;17.70;1.00;;;;;;6360133;27;20261;-54
2022/10/26 14:46:20;;;;;;;3.90;3.60;;;17.60;1.00;;;;;;6380502;27;20239;-53
2022/10/26 14:49:25;;;;;;;3.20;3.10;;;17.60;1.00;;;;;;6380036;27;20230;-54
2022/10/26 14:52:33;;;;;;;3.50;3.20;;;17.50;1.00;;;;;;6389121;27;20254;-54
2022/10/26 14:55:47;;;;;;;3.60;3.40;;;17.40;1.00;;;;;;6387578;27;20231;-53
2022/10/26 14:58:50;;;;;;;3.40;3.03;;;17.30;1.00;;;;;;6383366;27;20722;-54
2022/10/26 15:01:55;;;;;;;4.00;2.83;;;17.30;1.00;;;;;;6388884;27;20242;-53
2022/10/26 15:05:01;;;;;;;3.27;3.07;;;17.20;1.00;;;;;;6386868;27;20238;-54
2022/10/26 15:08:41;;;;;;;3.27;3.17;;;17.10;1.00;;;;;;6385162;27;20231;-54
2022/10/26 15:12:05;;;;;;;3.27;3.10;;;17.20;1.00;;;;;;6386904;27;20239;-54
2022/10/26 15:15:20;;;;;;;3.83;3.40;;;17.10;1.00;;;;;;6387897;27;20616;-53
2022/10/26 15:18:26;;;;;;;3.30;3.10;;;17.00;1.00;;;;;;6380854;27;20234;-54
2022/10/26 15:21:34;;;;;;;3.87;3.43;;;16.90;1.00;;;;;;6387444;27;22013;-54
2022/10/26 15:24:39;;;;;;;3.20;3.10;;;16.90;1.00;;;;;;6384926;27;20229;-55
2022/10/26 15:27:43;;;;;;;3.60;3.50;;;16.80;1.00;;;;;;6386594;27;20234;-56
2022/10/26 15:30:59;;;;;;;4.70;3.60;;;16.80;1.00;;;;;;6385729;27;20283;-55
2022/10/26 15:34:14;;;;;;;4.73;4.43;;;16.70;1.00;;;;;;6377042;27;20249;-53
2022/10/26 15:37:17;;;;;;;6.83;4.97;;;16.70;1.00;;;;;;6379517;27;20418;-54
2022/10/26 15:40:22;;;;;;;4.67;4.30;;;16.60;1.00;;;;;;6386848;27;20226;-53
2022/10/26 15:43:24;;;;;;;3.97;3.67;;;16.60;1.00;;;;;;6384978;27;20239;-54
2022/10/26 15:46:30;;;;;;;4.77;4.23;;;16.50;1.00;;;;;;6385753;27;20753;-54
2022/10/26 15:49:33;;;;;;;7.17;4.20;;;16.50;1.00;;;;;;6382118;27;20238;-55
2022/10/26 15:52:36;;;;;;;4.47;4.07;;;16.40;1.00;;;;;;6386053;27;20483;-53
2022/10/26 15:55:40;;;;;;;6.37;4.60;;;16.30;1.00;;;;;;6387517;27;20473;-54
2022/10/26 15:58:43;;;;;;;5.77;5.37;;;16.20;1.00;;;;;;6381930;27;20226;-56
2022/10/26 16:01:46;;;;;;;7.33;4.67;;;16.20;1.00;;;;;;6386662;27;20506;-54
2022/10/26 16:04:49;;;;;;;5.90;4.70;;;16.10;1.00;;;;;;6385196;27;20241;-55
2022/10/26 16:07:52;;;;;;;5.40;4.90;;;16.00;1.00;;;;;;6384789;27;20243;-54
2022/10/26 16:10:56;;;;;;;6.67;5.70;;;15.90;1.00;;;;;;6380281;27;20238;-55
2022/10/26 16:14:00;;;;;;;6.63;6.10;;;15.90;1.00;;;;;;6386159;27;20244;-54
2022/10/26 16:17:06;;;;;;;6.47;5.97;;;15.80;1.00;;;;;;6385859;27;20318;-54
2022/10/26 16:20:13;;;;;;;6.63;6.13;;;15.80;1.00;;;;;;6383859;27;20301;-55
2022/10/26 16:23:16;;;;;;;5.80;5.40;;;15.70;1.00;;;;;;6385263;27;20487;-54
2022/10/26 16:26:22;;;;;;;6.87;5.73;;;15.70;1.00;;;;;;6385764;27;20234;-53